Pagrindinis puslapis
METAR-TAF:

METAR-TAF

Oro uostai :

Aurangabadas, Indija

platuma: 19-51-46N, ilguma: 75-23-53E, Aukštis: 582 m

Dabartinis oras

Ataskaita buvo paskelbta 2 valandos ir 52 minutes, ne 18:00 UTC
Vėjas 5 kt iš Vakarų/Pietvakarių
Temperatūra 25°C
Drėgmė 79%
Slėgis 1010 hPa
Matomumas: 6000 m
Mažai debesys ne aukštis 2000 ft

METAR: VAAU 171800Z 25005KT 6000 FEW020 25/21 Q1010 NOSIG

Laikas: 02:22 (20:52 UTC)

Prognozė

Ataskaita buvo paskelbta 9 valandos ir 52 minutes, ne 11:00 UTC
Prognozė galioja nuo 17 metu 12 UTC su 17 metu 21 UTC
Vėjas 5 kt iš Vakarų
Matomumas: 5000 m
Išsisklaidę debesys ne aukštis 2000 ft
Išsisklaidę debesys ne aukštis 2500 ft
migla
Laikinai
nuo 17 metu 12 UTC su 17 metu 21 UTC
Matomumas: 3000 m
Išsisklaidę debesys ne aukštis 1200 ft
Mažai debesys ne aukštis 2500 ft, aukštai iškilę kamuoliniai debesys.
Su prošvaistėmis ne aukštis 9000 ft
lietus

TAF: VAAU 171100Z 1712/1721 27005KT 5000 HZ SCT020 SCT025 TEMPO 1712/1721 3000 -RA SCT012 FEW025TCU BKN090

Orai ataskaitas ir orų prognozės (METAR, TAF).

turimą stotys yra geltonos ir raudonos taškus žemėlapyje.

Perkelti pele per norėdami pamatyti stoties vardą.

Tada spustelėkite, norėdami matyti oro stebėjimo ir prognozės.

Norėdami pakeisti žemėlapį: spustelėkite ant žalios mygtukų su juodo kryžiaus žemyn,; žalią mygtuką su brūkšneliu, jei norite nutolinti; arba žalių rodyklių gretimoms žemėlapius.


METAR-TAF: